Terminal Aerodrome Forecast
Issued by NWS

Home | Current Version | Previous Version | Graphics & Text | Print | Product List | Glossary On
Versions: 1 2 3 4 5 6 7 8 9 10 11 12 13 14 15 16 17 18 19 20
203
FTUS43 KLSX 232015 AAB
TAFSUS
TAF AMD
KSUS 232015Z 2320/2418 36010KT P6SM SCT040 BKN200
     FM240700 30005KT P6SM SKC
     FM241700 31009KT P6SM SCT150=

USA.gov is the U.S. government's official web portal to all federal, state and local government web resources and services.